F/V Roger Christian3 — FUFL — position and weather

sailwx.info

Track history (hours):
 
Tides and Currents Weather Stations Pressure Air Temp Water Temp Dewpoint Dewpoint Depression Visibility Wind Speed Wind Dir Waves Ship Positions

F/V Roger Christian3

Last reported at 2014-Nov-28 17:21 UTC. Time now 2014-Nov-29 09:50 UTC.
Position N 43°24' E 003°42'.

Length 24 m; draft 4 m.

Type: Fishing. MMSI: 228173800.

Date/timePositionNaut miles runAvg speedWind from/ knotsBaromVisibWave heightAir tempDewpointWater temp
2014-Nov-28 17:21N 43°24' E 003°42'0 0.0
2014-Nov-28 12:23N 43°24' E 003°42'0 0.0
2014-Nov-27 18:28N 43°24' E 003°42'0 0.0
2014-Nov-27 17:29N 43°24' E 003°42'0 0.3
2014-Nov-27 16:31N 43°24' E 003°42'0 0.4
2014-Nov-27 15:33N 43°24' E 003°42'1111.1
2014-Nov-27 14:33N 43°14' E 003°48'1111.5
2014-Nov-27 13:33N 43°03' E 003°54'8 8.5
2014-Nov-27 12:33N 42°55' E 003°59'4 4.2
2014-Nov-27 11:33N 42°56' E 004°04'5 4.4
2014-Nov-27 10:32N 42°54' E 004°10'5 4.4
2014-Nov-27 09:30N 42°52' E 004°15'6 5.5
2014-Nov-27 08:30N 42°53' E 004°23'3 3.4
2014-Nov-27 07:33N 42°56' E 004°26'5 4.0
2014-Nov-27 06:18N 43°00' E 004°24'3 4.3
2014-Nov-27 05:30N 43°02' E 004°20'4 4.6
2014-Nov-27 04:33N 43°05' E 004°16'1110.9
2014-Nov-27 03:33N 43°12' E 004°04'1211.2
2014-Nov-27 02:30N 43°20' E 003°51'8 0.9
2014-Nov-26 17:13N 43°24' E 003°42'0 0.2
2014-Nov-26 16:31N 43°24' E 003°42'4 3.9
2014-Nov-26 15:26N 43°20' E 003°43'4 4.2
2014-Nov-26 14:33N 43°16' E 003°44'11 1.0
2014-Nov-26 03:23N 43°21' E 003°58'6 6.6
2014-Nov-26 02:31N 43°22' E 003°51'14 1.1
2014-Nov-25 13:27N 43°14' E 004°06'9 3.9
2014-Nov-25 11:13N 43°08' E 004°15'3 4.5
2014-Nov-25 10:28N 43°05' E 004°18'5 4.4
2014-Nov-25 09:14N 43°02' E 004°23'18 1.0
2014-Nov-24 14:05N 43°14' E 004°05'4 4.7
2014-Nov-24 13:09N 43°11' E 004°10'7 3.9
2014-Nov-24 11:29N 43°08' E 004°17'11 3.4
2014-Nov-24 08:12N 43°01' E 004°29'41 1.0
2014-Nov-22 15:30N 43°24' E 003°42'0 0.0
2014-Nov-22 14:05N 43°24' E 003°42'0 0.0
2014-Nov-21 16:16N 43°24' E 003°42'1 1.1
2014-Nov-21 15:21N 43°24' E 003°44'1311.8
2014-Nov-21 14:13N 43°18' E 003°60'4 4.5
2014-Nov-21 13:19N 43°16' E 004°05'8 4.5
2014-Nov-21 11:27N 43°12' E 004°15'4 4.1
2014-Nov-21 10:21N 43°09' E 004°20'31 1.7
2014-Nov-20 16:20N 43°24' E 003°42'1311.0
2014-Nov-20 15:07N 43°18' E 003°59'3 4.9
2014-Nov-20 14:25N 43°17' E 004°03'20 3.9
2014-Nov-20 09:16N 43°06' E 004°26'4 3.3
2014-Nov-20 08:09N 43°06' E 004°21'1 1.5
2014-Nov-20 07:25N 43°07' E 004°20'33 2.3
2014-Nov-19 17:26N 43°24' E 003°42'0 0.1
2014-Nov-19 16:24N 43°24' E 003°42'2 2.0
2014-Nov-19 15:26N 43°23' E 003°44'9 7.0
2014-Nov-19 14:09N 43°17' E 003°53'9 4.4
2014-Nov-19 12:14N 43°13' E 004°03'3 5.0
2014-Nov-19 11:32N 43°12' E 004°08'4 3.3
2014-Nov-19 10:25N 43°10' E 004°13'4 4.5
2014-Nov-19 09:33N 43°07' E 004°15'6 5.4
2014-Nov-19 08:24N 43°01' E 004°12'4 2.0
2014-Nov-19 06:27N 43°05' E 004°10'4 4.3
2014-Nov-19 05:32N 43°08' E 004°06'24 2.6
2014-Nov-18 20:10N 43°24' E 003°42'0 0.0
2014-Nov-18 18:12N 43°24' E 003°42'0 0.0
2014-Nov-18 17:28N 43°24' E 003°42'  
Track history (hours):
 
Tides and Currents Weather Stations Pressure Air Temp Water Temp Dewpoint Dewpoint Depression Visibility Wind Speed Wind Dir Waves Ship Positions

F/V Roger Christian3

Last reported at 2014-Nov-28 17:21 UTC. Time now 2014-Nov-29 09:50 UTC.
Position N 43°24' E 003°42'.

Length 24 m; draft 4 m.

Type: Fishing. MMSI: 228173800.

Date/timePositionNaut miles runAvg speedWind from/ knotsBaromVisibWave heightAir tempDewpointWater temp
2014-Nov-28 17:21N 43°24' E 003°42'0 0.0
2014-Nov-28 12:23N 43°24' E 003°42'0 0.0
2014-Nov-27 18:28N 43°24' E 003°42'0 0.0
2014-Nov-27 17:29N 43°24' E 003°42'0 0.3
2014-Nov-27 16:31N 43°24' E 003°42'0 0.4
2014-Nov-27 15:33N 43°24' E 003°42'1111.1
2014-Nov-27 14:33N 43°14' E 003°48'1111.5
2014-Nov-27 13:33N 43°03' E 003°54'8 8.5
2014-Nov-27 12:33N 42°55' E 003°59'4 4.2
2014-Nov-27 11:33N 42°56' E 004°04'5 4.4
2014-Nov-27 10:32N 42°54' E 004°10'5 4.4
2014-Nov-27 09:30N 42°52' E 004°15'6 5.5
2014-Nov-27 08:30N 42°53' E 004°23'3 3.4
2014-Nov-27 07:33N 42°56' E 004°26'5 4.0
2014-Nov-27 06:18N 43°00' E 004°24'3 4.3
2014-Nov-27 05:30N 43°02' E 004°20'4 4.6
2014-Nov-27 04:33N 43°05' E 004°16'1110.9
2014-Nov-27 03:33N 43°12' E 004°04'1211.2
2014-Nov-27 02:30N 43°20' E 003°51'8 0.9
2014-Nov-26 17:13N 43°24' E 003°42'0 0.2
2014-Nov-26 16:31N 43°24' E 003°42'4 3.9
2014-Nov-26 15:26N 43°20' E 003°43'4 4.2
2014-Nov-26 14:33N 43°16' E 003°44'11 1.0
2014-Nov-26 03:23N 43°21' E 003°58'6 6.6
2014-Nov-26 02:31N 43°22' E 003°51'14 1.1
2014-Nov-25 13:27N 43°14' E 004°06'9 3.9
2014-Nov-25 11:13N 43°08' E 004°15'3 4.5
2014-Nov-25 10:28N 43°05' E 004°18'5 4.4
2014-Nov-25 09:14N 43°02' E 004°23'18 1.0
2014-Nov-24 14:05N 43°14' E 004°05'4 4.7
2014-Nov-24 13:09N 43°11' E 004°10'7 3.9
2014-Nov-24 11:29N 43°08' E 004°17'11 3.4
2014-Nov-24 08:12N 43°01' E 004°29'41 1.0
2014-Nov-22 15:30N 43°24' E 003°42'0 0.0
2014-Nov-22 14:05N 43°24' E 003°42'0 0.0
2014-Nov-21 16:16N 43°24' E 003°42'1 1.1
2014-Nov-21 15:21N 43°24' E 003°44'1311.8
2014-Nov-21 14:13N 43°18' E 003°60'4 4.5
2014-Nov-21 13:19N 43°16' E 004°05'8 4.5
2014-Nov-21 11:27N 43°12' E 004°15'4 4.1
2014-Nov-21 10:21N 43°09' E 004°20'31 1.7
2014-Nov-20 16:20N 43°24' E 003°42'1311.0
2014-Nov-20 15:07N 43°18' E 003°59'3 4.9
2014-Nov-20 14:25N 43°17' E 004°03'20 3.9
2014-Nov-20 09:16N 43°06' E 004°26'4 3.3
2014-Nov-20 08:09N 43°06' E 004°21'1 1.5
2014-Nov-20 07:25N 43°07' E 004°20'33 2.3
2014-Nov-19 17:26N 43°24' E 003°42'0 0.1
2014-Nov-19 16:24N 43°24' E 003°42'2 2.0
2014-Nov-19 15:26N 43°23' E 003°44'9 7.0
2014-Nov-19 14:09N 43°17' E 003°53'9 4.4
2014-Nov-19 12:14N 43°13' E 004°03'3 5.0
2014-Nov-19 11:32N 43°12' E 004°08'4 3.3
2014-Nov-19 10:25N 43°10' E 004°13'4 4.5
2014-Nov-19 09:33N 43°07' E 004°15'6 5.4
2014-Nov-19 08:24N 43°01' E 004°12'4 2.0
2014-Nov-19 06:27N 43°05' E 004°10'4 4.3
2014-Nov-19 05:32N 43°08' E 004°06'24 2.6
2014-Nov-18 20:10N 43°24' E 003°42'0 0.0
2014-Nov-18 18:12N 43°24' E 003°42'0 0.0
2014-Nov-18 17:28N 43°24' E 003°42'  

Dump ship's entire track history